sensor_id;sensor_type;location;lat;lon;timestamp;pressure;altitude;pressure_sealevel;temperature
42119;BMP280;27783;42.782;23.274;2022-10-19T00:01:50;96140.94;;;2.59
42119;BMP280;27783;42.782;23.274;2022-10-19T00:04:15;96131.56;;;2.47
42119;BMP280;27783;42.782;23.274;2022-10-19T00:06:41;96132.66;;;2.37
42119;BMP280;27783;42.782;23.274;2022-10-19T00:09:08;96122.59;;;2.36
42119;BMP280;27783;42.782;23.274;2022-10-19T00:11:36;96131.66;;;2.30
42119;BMP280;27783;42.782;23.274;2022-10-19T00:14:02;96125.94;;;2.16
42119;BMP280;27783;42.782;23.274;2022-10-19T00:16:31;96122.91;;;2.34
42119;BMP280;27783;42.782;23.274;2022-10-19T00:18:58;96112.41;;;2.03
42119;BMP280;27783;42.782;23.274;2022-10-19T00:21:24;96113.56;;;2.14
42119;BMP280;27783;42.782;23.274;2022-10-19T00:23:50;96112.16;;;2.16
42119;BMP280;27783;42.782;23.274;2022-10-19T00:26:15;96111.09;;;1.89
42119;BMP280;27783;42.782;23.274;2022-10-19T00:28:41;96109.34;;;1.73
42119;BMP280;27783;42.782;23.274;2022-10-19T00:31:09;96103.25;;;1.69
42119;BMP280;27783;42.782;23.274;2022-10-19T00:33:35;96111.56;;;0.93
42119;BMP280;27783;42.782;23.274;2022-10-19T00:36:02;96108.50;;;1.08
42119;BMP280;27783;42.782;23.274;2022-10-19T00:38:27;96103.34;;;1.44
42119;BMP280;27783;42.782;23.274;2022-10-19T00:40:53;96093.25;;;1.51
42119;BMP280;27783;42.782;23.274;2022-10-19T00:43:22;96094.19;;;1.75
42119;BMP280;27783;42.782;23.274;2022-10-19T00:45:48;96081.22;;;2.03
42119;BMP280;27783;42.782;23.274;2022-10-19T00:48:16;96082.88;;;2.07
42119;BMP280;27783;42.782;23.274;2022-10-19T00:50:44;96083.09;;;2.14
42119;BMP280;27783;42.782;23.274;2022-10-19T00:53:09;96077.91;;;1.94
42119;BMP280;27783;42.782;23.274;2022-10-19T00:55:36;96082.66;;;1.64
42119;BMP280;27783;42.782;23.274;2022-10-19T00:58:04;96068.31;;;1.86
42119;BMP280;27783;42.782;23.274;2022-10-19T01:00:30;96066.03;;;2.05
42119;BMP280;27783;42.782;23.274;2022-10-19T01:02:56;96062.31;;;2.14
42119;BMP280;27783;42.782;23.274;2022-10-19T01:05:23;96057.38;;;2.21
42119;BMP280;27783;42.782;23.274;2022-10-19T01:07:49;96052.69;;;2.15
42119;BMP280;27783;42.782;23.274;2022-10-19T01:10:15;96051.91;;;1.94
42119;BMP280;27783;42.782;23.274;2022-10-19T01:12:54;96048.59;;;1.85
42119;BMP280;27783;42.782;23.274;2022-10-19T01:15:31;96049.84;;;1.80
42119;BMP280;27783;42.782;23.274;2022-10-19T01:18:21;96054.44;;;1.54
42119;BMP280;27783;42.782;23.274;2022-10-19T01:26:09;96038.44;;;1.72
42119;BMP280;27783;42.782;23.274;2022-10-19T01:28:58;96034.75;;;1.73
42119;BMP280;27783;42.782;23.274;2022-10-19T01:31:45;96038.28;;;1.69
42119;BMP280;27783;42.782;23.274;2022-10-19T01:34:21;96042.03;;;1.51
42119;BMP280;27783;42.782;23.274;2022-10-19T01:37:03;96039.72;;;1.30
42119;BMP280;27783;42.782;23.274;2022-10-19T01:40:00;96030.53;;;1.33
42119;BMP280;27783;42.782;23.274;2022-10-19T01:42:29;96026.44;;;1.32
42119;BMP280;27783;42.782;23.274;2022-10-19T01:45:01;96019.66;;;1.02
42119;BMP280;27783;42.782;23.274;2022-10-19T01:47:40;96022.38;;;1.06
42119;BMP280;27783;42.782;23.274;2022-10-19T01:50:27;96027.00;;;1.00
42119;BMP280;27783;42.782;23.274;2022-10-19T01:52:56;96015.44;;;0.73
42119;BMP280;27783;42.782;23.274;2022-10-19T01:55:23;96023.53;;;0.80
42119;BMP280;27783;42.782;23.274;2022-10-19T01:57:54;96016.66;;;0.76
42119;BMP280;27783;42.782;23.274;2022-10-19T02:00:21;96023.13;;;0.53
42119;BMP280;27783;42.782;23.274;2022-10-19T02:02:50;96023.91;;;0.37
42119;BMP280;27783;42.782;23.274;2022-10-19T02:05:19;96021.78;;;0.39
42119;BMP280;27783;42.782;23.274;2022-10-19T02:07:48;96013.38;;;0.50
42119;BMP280;27783;42.782;23.274;2022-10-19T02:10:16;96006.34;;;0.59
42119;BMP280;27783;42.782;23.274;2022-10-19T02:12:42;95999.59;;;0.66
42119;BMP280;27783;42.782;23.274;2022-10-19T02:15:12;96006.88;;;0.89
42119;BMP280;27783;42.782;23.274;2022-10-19T02:17:42;95996.47;;;0.89
42119;BMP280;27783;42.782;23.274;2022-10-19T02:20:08;96003.22;;;0.90
42119;BMP280;27783;42.782;23.274;2022-10-19T02:22:34;96001.97;;;0.96
42119;BMP280;27783;42.782;23.274;2022-10-19T02:25:00;95995.56;;;0.94
42119;BMP280;27783;42.782;23.274;2022-10-19T02:27:26;95998.72;;;1.07
42119;BMP280;27783;42.782;23.274;2022-10-19T02:29:52;96006.03;;;1.14
42119;BMP280;27783;42.782;23.274;2022-10-19T02:32:18;96012.56;;;1.19
42119;BMP280;27783;42.782;23.274;2022-10-19T02:34:43;96006.59;;;1.19
42119;BMP280;27783;42.782;23.274;2022-10-19T02:37:09;96011.38;;;1.09
42119;BMP280;27783;42.782;23.274;2022-10-19T02:39:34;96017.31;;;1.09
42119;BMP280;27783;42.782;23.274;2022-10-19T02:42:08;96012.56;;;1.19
42119;BMP280;27783;42.782;23.274;2022-10-19T02:44:46;96013.09;;;0.97
42119;BMP280;27783;42.782;23.274;2022-10-19T02:47:19;96010.88;;;0.79
42119;BMP280;27783;42.782;23.274;2022-10-19T02:49:47;96007.00;;;1.01
42119;BMP280;27783;42.782;23.274;2022-10-19T02:52:13;96008.09;;;0.92
42119;BMP280;27783;42.782;23.274;2022-10-19T02:54:40;96002.88;;;1.00
42119;BMP280;27783;42.782;23.274;2022-10-19T02:57:18;96014.00;;;1.00
42119;BMP280;27783;42.782;23.274;2022-10-19T02:59:44;96009.31;;;0.86
42119;BMP280;27783;42.782;23.274;2022-10-19T03:02:09;96007.06;;;0.76
42119;BMP280;27783;42.782;23.274;2022-10-19T03:04:35;96011.63;;;0.87
42119;BMP280;27783;42.782;23.274;2022-10-19T03:07:00;96002.59;;;0.93
42119;BMP280;27783;42.782;23.274;2022-10-19T03:09:26;96012.06;;;0.89
42119;BMP280;27783;42.782;23.274;2022-10-19T03:11:51;96013.28;;;0.92
42119;BMP280;27783;42.782;23.274;2022-10-19T03:14:17;96007.63;;;0.98
42119;BMP280;27783;42.782;23.274;2022-10-19T03:16:42;96002.91;;;0.92
42119;BMP280;27783;42.782;23.274;2022-10-19T03:19:07;96003.59;;;0.64
42119;BMP280;27783;42.782;23.274;2022-10-19T03:21:33;96005.56;;;0.67
42119;BMP280;27783;42.782;23.274;2022-10-19T03:23:59;96004.75;;;0.83
42119;BMP280;27783;42.782;23.274;2022-10-19T03:26:25;96003.09;;;0.79
42119;BMP280;27783;42.782;23.274;2022-10-19T03:28:50;95997.19;;;0.53
42119;BMP280;27783;42.782;23.274;2022-10-19T03:31:16;96008.06;;;0.39
42119;BMP280;27783;42.782;23.274;2022-10-19T03:33:41;95998.44;;;0.15
42119;BMP280;27783;42.782;23.274;2022-10-19T03:36:25;96006.97;;;0.40
42119;BMP280;27783;42.782;23.274;2022-10-19T03:39:00;96003.47;;;0.36
42119;BMP280;27783;42.782;23.274;2022-10-19T03:41:27;96000.56;;;0.46
42119;BMP280;27783;42.782;23.274;2022-10-19T03:43:53;96004.09;;;0.25
42119;BMP280;27783;42.782;23.274;2022-10-19T03:46:19;95996.91;;;0.14
42119;BMP280;27783;42.782;23.274;2022-10-19T03:48:45;95996.91;;;0.14
42119;BMP280;27783;42.782;23.274;2022-10-19T03:51:13;96004.69;;;0.14
42119;BMP280;27783;42.782;23.274;2022-10-19T03:53:39;95992.22;;;0.16
42119;BMP280;27783;42.782;23.274;2022-10-19T03:58:33;96000.13;;;0.19
42119;BMP280;27783;42.782;23.274;2022-10-19T04:00:59;95995.88;;;-0.02
42119;BMP280;27783;42.782;23.274;2022-10-19T04:03:25;95994.63;;;0.04
42119;BMP280;27783;42.782;23.274;2022-10-19T04:05:50;95992.50;;;0.39
42119;BMP280;27783;42.782;23.274;2022-10-19T04:08:16;95991.13;;;0.33
42119;BMP280;27783;42.782;23.274;2022-10-19T04:10:41;95983.22;;;0.21
42119;BMP280;27783;42.782;23.274;2022-10-19T04:13:07;95987.94;;;0.11
42119;BMP280;27783;42.782;23.274;2022-10-19T04:15:32;95981.06;;;-0.10
42119;BMP280;27783;42.782;23.274;2022-10-19T04:17:57;95991.91;;;0.09
42119;BMP280;27783;42.782;23.274;2022-10-19T04:20:23;95982.31;;;0.09
42119;BMP280;27783;42.782;23.274;2022-10-19T04:22:51;95991.59;;;-0.15
42119;BMP280;27783;42.782;23.274;2022-10-19T04:25:16;95982.44;;;-0.29
42119;BMP280;27783;42.782;23.274;2022-10-19T04:27:42;95986.72;;;-0.24
42119;BMP280;27783;42.782;23.274;2022-10-19T04:30:07;95983.22;;;-0.36
42119;BMP280;27783;42.782;23.274;2022-10-19T04:32:33;95985.91;;;-0.41
42119;BMP280;27783;42.782;23.274;2022-10-19T04:34:58;95989.03;;;-0.77
42119;BMP280;27783;42.782;23.274;2022-10-19T04:37:24;95982.50;;;-0.75
42119;BMP280;27783;42.782;23.274;2022-10-19T04:39:49;95977.72;;;-0.27
42119;BMP280;27783;42.782;23.274;2022-10-19T04:42:14;95984.88;;;-0.16
42119;BMP280;27783;42.782;23.274;2022-10-19T04:44:40;95984.75;;;0.06
42119;BMP280;27783;42.782;23.274;2022-10-19T04:47:05;95983.97;;;0.14
42119;BMP280;27783;42.782;23.274;2022-10-19T04:49:31;95972.25;;;0.08
42119;BMP280;27783;42.782;23.274;2022-10-19T04:51:56;95984.59;;;0.19
42119;BMP280;27783;42.782;23.274;2022-10-19T04:54:21;95975.72;;;0.03
42119;BMP280;27783;42.782;23.274;2022-10-19T04:56:47;95970.56;;;0.03
42119;BMP280;27783;42.782;23.274;2022-10-19T04:59:13;95974.38;;;0.06
42119;BMP280;27783;42.782;23.274;2022-10-19T05:01:38;95971.94;;;0.01
42119;BMP280;27783;42.782;23.274;2022-10-19T05:04:05;95968.91;;;-0.01
42119;BMP280;27783;42.782;23.274;2022-10-19T05:06:31;95969.81;;;-0.05
42119;BMP280;27783;42.782;23.274;2022-10-19T05:08:56;95963.72;;;-0.01
42119;BMP280;27783;42.782;23.274;2022-10-19T05:11:22;95974.22;;;0.19
42119;BMP280;27783;42.782;23.274;2022-10-19T05:13:48;95970.69;;;0.32
42119;BMP280;27783;42.782;23.274;2022-10-19T05:16:16;95978.91;;;0.42
42119;BMP280;27783;42.782;23.274;2022-10-19T05:18:49;95973.44;;;0.35
42119;BMP280;27783;42.782;23.274;2022-10-19T05:21:15;95979.25;;;0.32
42119;BMP280;27783;42.782;23.274;2022-10-19T05:23:41;95988.97;;;0.27
42119;BMP280;27783;42.782;23.274;2022-10-19T05:26:15;95988.53;;;0.16
42119;BMP280;27783;42.782;23.274;2022-10-19T05:28:42;95991.13;;;0.16
42119;BMP280;27783;42.782;23.274;2022-10-19T05:31:09;95985.94;;;0.16
42119;BMP280;27783;42.782;23.274;2022-10-19T05:33:35;95990.84;;;-0.07
42119;BMP280;27783;42.782;23.274;2022-10-19T05:36:10;95986.09;;;0.03
42119;BMP280;27783;42.782;23.274;2022-10-19T05:38:36;95990.38;;;0.08
42119;BMP280;27783;42.782;23.274;2022-10-19T05:41:02;95987.78;;;0.24
42119;BMP280;27783;42.782;23.274;2022-10-19T05:43:27;95990.06;;;0.42
42119;BMP280;27783;42.782;23.274;2022-10-19T05:45:53;95981.19;;;0.51
42119;BMP280;27783;42.782;23.274;2022-10-19T05:48:18;95985.13;;;0.66
42119;BMP280;27783;42.782;23.274;2022-10-19T05:50:53;95982.00;;;0.88
42119;BMP280;27783;42.782;23.274;2022-10-19T05:53:19;95989.94;;;0.92
42119;BMP280;27783;42.782;23.274;2022-10-19T05:55:45;95981.19;;;1.04
42119;BMP280;27783;42.782;23.274;2022-10-19T05:58:10;95989.19;;;1.19
42119;BMP280;27783;42.782;23.274;2022-10-19T06:00:36;95973.47;;;1.24
42119;BMP280;27783;42.782;23.274;2022-10-19T06:03:02;95983.78;;;1.33
42119;BMP280;27783;42.782;23.274;2022-10-19T06:05:27;95990.22;;;1.55
42119;BMP280;27783;42.782;23.274;2022-10-19T06:07:53;95994.09;;;1.77
42119;BMP280;27783;42.782;23.274;2022-10-19T06:10:18;95982.09;;;1.84
42119;BMP280;27783;42.782;23.274;2022-10-19T06:12:45;95986.19;;;1.94
42119;BMP280;27783;42.782;23.274;2022-10-19T06:15:11;95995.06;;;2.13
42119;BMP280;27783;42.782;23.274;2022-10-19T06:17:36;96001.41;;;2.23
42119;BMP280;27783;42.782;23.274;2022-10-19T06:20:02;95991.72;;;2.44
42119;BMP280;27783;42.782;23.274;2022-10-19T06:22:28;95998.34;;;2.73
42119;BMP280;27783;42.782;23.274;2022-10-19T06:24:54;95993.81;;;2.93
42119;BMP280;27783;42.782;23.274;2022-10-19T06:27:20;95999.09;;;3.28
42119;BMP280;27783;42.782;23.274;2022-10-19T06:29:46;96002.81;;;3.39
42119;BMP280;27783;42.782;23.274;2022-10-19T06:32:12;96008.63;;;3.82
42119;BMP280;27783;42.782;23.274;2022-10-19T06:34:37;96004.44;;;4.16
42119;BMP280;27783;42.782;23.274;2022-10-19T06:37:03;96000.16;;;4.35
42119;BMP280;27783;42.782;23.274;2022-10-19T06:39:28;96003.03;;;4.57
42119;BMP280;27783;42.782;23.274;2022-10-19T06:41:53;96004.97;;;4.60
42119;BMP280;27783;42.782;23.274;2022-10-19T06:44:19;96006.84;;;4.75
42119;BMP280;27783;42.782;23.274;2022-10-19T06:46:45;95990.47;;;5.04
42119;BMP280;27783;42.782;23.274;2022-10-19T06:49:12;95992.16;;;5.57
42119;BMP280;27783;42.782;23.274;2022-10-19T06:51:38;95997.00;;;5.25
42119;BMP280;27783;42.782;23.274;2022-10-19T06:54:05;95991.75;;;5.55
42119;BMP280;27783;42.782;23.274;2022-10-19T06:56:30;95993.94;;;5.83
42119;BMP280;27783;42.782;23.274;2022-10-19T06:58:56;95988.19;;;5.93
42119;BMP280;27783;42.782;23.274;2022-10-19T07:01:22;95994.59;;;6.48
42119;BMP280;27783;42.782;23.274;2022-10-19T07:03:50;95987.78;;;6.80
42119;BMP280;27783;42.782;23.274;2022-10-19T07:06:16;95975.38;;;6.99
42119;BMP280;27783;42.782;23.274;2022-10-19T07:08:42;95973.25;;;6.64
42119;BMP280;27783;42.782;23.274;2022-10-19T07:11:10;95980.69;;;7.24
42119;BMP280;27783;42.782;23.274;2022-10-19T07:13:36;95975.41;;;7.90
42119;BMP280;27783;42.782;23.274;2022-10-19T07:16:05;95963.25;;;8.29
42119;BMP280;27783;42.782;23.274;2022-10-19T07:18:35;95968.28;;;8.73
42119;BMP280;27783;42.782;23.274;2022-10-19T07:21:03;95951.84;;;8.82
42119;BMP280;27783;42.782;23.274;2022-10-19T07:23:31;95962.81;;;9.23
42119;BMP280;27783;42.782;23.274;2022-10-19T07:25:56;95957.72;;;9.44
42119;BMP280;27783;42.782;23.274;2022-10-19T07:28:27;95949.38;;;8.96
42119;BMP280;27783;42.782;23.274;2022-10-19T07:30:54;95956.53;;;9.77
42119;BMP280;27783;42.782;23.274;2022-10-19T07:33:19;95948.31;;;9.88
42119;BMP280;27783;42.782;23.274;2022-10-19T07:35:45;95952.75;;;10.40
42119;BMP280;27783;42.782;23.274;2022-10-19T07:38:10;95943.66;;;10.24
42119;BMP280;27783;42.782;23.274;2022-10-19T07:40:36;95938.28;;;10.97
42119;BMP280;27783;42.782;23.274;2022-10-19T07:43:01;95924.34;;;11.03
42119;BMP280;27783;42.782;23.274;2022-10-19T07:45:27;95930.56;;;10.45
42119;BMP280;27783;42.782;23.274;2022-10-19T07:47:52;95929.94;;;10.75
42119;BMP280;27783;42.782;23.274;2022-10-19T07:50:18;95919.84;;;11.04
42119;BMP280;27783;42.782;23.274;2022-10-19T07:52:43;95927.28;;;10.68
42119;BMP280;27783;42.782;23.274;2022-10-19T07:55:09;95914.25;;;11.77
42119;BMP280;27783;42.782;23.274;2022-10-19T07:57:35;95908.53;;;11.95
42119;BMP280;27783;42.782;23.274;2022-10-19T08:00:01;95901.47;;;12.86
42119;BMP280;27783;42.782;23.274;2022-10-19T08:02:26;95905.75;;;12.63
42119;BMP280;27783;42.782;23.274;2022-10-19T08:04:52;95899.38;;;12.40
42119;BMP280;27783;42.782;23.274;2022-10-19T08:07:17;95901.28;;;12.33
42119;BMP280;27783;42.782;23.274;2022-10-19T08:09:43;95890.75;;;13.06
42119;BMP280;27783;42.782;23.274;2022-10-19T08:12:09;95891.78;;;13.22
42119;BMP280;27783;42.782;23.274;2022-10-19T08:14:34;95891.38;;;13.70
42119;BMP280;27783;42.782;23.274;2022-10-19T08:17:00;95885.53;;;14.60
42119;BMP280;27783;42.782;23.274;2022-10-19T08:19:26;95879.47;;;14.31
42119;BMP280;27783;42.782;23.274;2022-10-19T08:21:51;95878.84;;;14.17
42119;BMP280;27783;42.782;23.274;2022-10-19T08:24:18;95880.50;;;13.12
42119;BMP280;27783;42.782;23.274;2022-10-19T08:26:45;95881.38;;;14.59
42119;BMP280;27783;42.782;23.274;2022-10-19T08:29:16;95867.03;;;14.24
42119;BMP280;27783;42.782;23.274;2022-10-19T08:31:43;95873.00;;;14.64
42119;BMP280;27783;42.782;23.274;2022-10-19T08:34:08;95860.34;;;14.75
42119;BMP280;27783;42.782;23.274;2022-10-19T08:36:34;95856.19;;;15.96
42119;BMP280;27783;42.782;23.274;2022-10-19T08:39:02;95860.97;;;15.37
42119;BMP280;27783;42.782;23.274;2022-10-19T08:41:36;95851.66;;;15.26
42119;BMP280;27783;42.782;23.274;2022-10-19T08:49:15;95846.25;;;16.00
42119;BMP280;27783;42.782;23.274;2022-10-19T08:51:43;95841.75;;;16.53
42119;BMP280;27783;42.782;23.274;2022-10-19T08:54:17;95819.47;;;17.63
42119;BMP280;27783;42.782;23.274;2022-10-19T08:56:59;95825.59;;;18.07
42119;BMP280;27783;42.782;23.274;2022-10-19T09:01:57;95818.84;;;18.02
42119;BMP280;27783;42.782;23.274;2022-10-19T09:04:39;95812.28;;;18.59
42119;BMP280;27783;42.782;23.274;2022-10-19T09:09:41;95803.50;;;18.98
42119;BMP280;27783;42.782;23.274;2022-10-19T09:12:10;95812.88;;;18.90
42119;BMP280;27783;42.782;23.274;2022-10-19T09:14:57;95815.44;;;18.42
42119;BMP280;27783;42.782;23.274;2022-10-19T09:17:23;95806.19;;;19.22
42119;BMP280;27783;42.782;23.274;2022-10-19T09:19:52;95809.78;;;19.04
42119;BMP280;27783;42.782;23.274;2022-10-19T09:22:28;95814.19;;;18.98
42119;BMP280;27783;42.782;23.274;2022-10-19T09:25:02;95813.63;;;19.39
42119;BMP280;27783;42.782;23.274;2022-10-19T09:27:40;95805.09;;;19.32
42119;BMP280;27783;42.782;23.274;2022-10-19T09:30:21;95794.84;;;19.76
42119;BMP280;27783;42.782;23.274;2022-10-19T09:32:57;95793.72;;;20.31
42119;BMP280;27783;42.782;23.274;2022-10-19T09:37:58;95798.75;;;19.96
42119;BMP280;27783;42.782;23.274;2022-10-19T09:40:27;95797.00;;;20.55
42119;BMP280;27783;42.782;23.274;2022-10-19T09:42:53;95792.72;;;20.37
42119;BMP280;27783;42.782;23.274;2022-10-19T09:46:12;95792.91;;;20.63
42119;BMP280;27783;42.782;23.274;2022-10-19T09:48:50;95786.50;;;20.61
42119;BMP280;27783;42.782;23.274;2022-10-19T09:51:18;95790.63;;;20.20
42119;BMP280;27783;42.782;23.274;2022-10-19T09:53:46;95794.94;;;20.59
42119;BMP280;27783;42.782;23.274;2022-10-19T09:56:20;95778.59;;;20.87
42119;BMP280;27783;42.782;23.274;2022-10-19T09:58:49;95784.31;;;20.47
42119;BMP280;27783;42.782;23.274;2022-10-19T10:04:16;95766.03;;;21.05
42119;BMP280;27783;42.782;23.274;2022-10-19T10:06:43;95763.78;;;20.44
42119;BMP280;27783;42.782;23.274;2022-10-19T10:09:20;95751.25;;;21.56
42119;BMP280;27783;42.782;23.274;2022-10-19T10:11:47;95763.44;;;21.40
42119;BMP280;27783;42.782;23.274;2022-10-19T10:14:21;95747.94;;;21.35
42119;BMP280;27783;42.782;23.274;2022-10-19T10:16:47;95749.72;;;21.29
42119;BMP280;27783;42.782;23.274;2022-10-19T10:19:15;95748.63;;;21.09
42119;BMP280;27783;42.782;23.274;2022-10-19T10:21:49;95740.47;;;21.21
42119;BMP280;27783;42.782;23.274;2022-10-19T10:24:20;95729.66;;;21.42
42119;BMP280;27783;42.782;23.274;2022-10-19T10:26:48;95732.44;;;21.30
42119;BMP280;27783;42.782;23.274;2022-10-19T10:29:22;95725.03;;;21.52
42119;BMP280;27783;42.782;23.274;2022-10-19T10:31:51;95716.41;;;22.18
42119;BMP280;27783;42.782;23.274;2022-10-19T10:36:52;95715.22;;;21.75
42119;BMP280;27783;42.782;23.274;2022-10-19T10:39:18;95715.53;;;22.03
42119;BMP280;27783;42.782;23.274;2022-10-19T10:41:46;95702.38;;;22.14
42119;BMP280;27783;42.782;23.274;2022-10-19T10:44:23;95693.16;;;21.80
42119;BMP280;27783;42.782;23.274;2022-10-19T10:46:58;95700.47;;;21.88
42119;BMP280;27783;42.782;23.274;2022-10-19T10:49:28;95695.69;;;22.01
42119;BMP280;27783;42.782;23.274;2022-10-19T10:51:59;95688.16;;;22.48
42119;BMP280;27783;42.782;23.274;2022-10-19T10:54:28;95690.94;;;22.62
42119;BMP280;27783;42.782;23.274;2022-10-19T10:57:17;95681.78;;;22.20
42119;BMP280;27783;42.782;23.274;2022-10-19T11:02:34;95676.38;;;22.55
42119;BMP280;27783;42.782;23.274;2022-10-19T11:08:02;95661.28;;;22.48
42119;BMP280;27783;42.782;23.274;2022-10-19T11:10:35;95657.56;;;22.86
42119;BMP280;27783;42.782;23.274;2022-10-19T11:13:09;95668.66;;;23.02
42119;BMP280;27783;42.782;23.274;2022-10-19T11:15:56;95665.13;;;22.96
42119;BMP280;27783;42.782;23.274;2022-10-19T11:18:46;95657.13;;;22.79
42119;BMP280;27783;42.782;23.274;2022-10-19T11:24:13;95642.13;;;23.27
42119;BMP280;27783;42.782;23.274;2022-10-19T11:32:02;95630.78;;;23.23
42119;BMP280;27783;42.782;23.274;2022-10-19T11:43:20;95606.84;;;23.25
42119;BMP280;27783;42.782;23.274;2022-10-19T11:51:38;95598.50;;;23.23
42119;BMP280;27783;42.782;23.274;2022-10-19T11:54:33;95592.41;;;23.37
42119;BMP280;27783;42.782;23.274;2022-10-19T11:57:23;95592.88;;;24.00
42119;BMP280;27783;42.782;23.274;2022-10-19T12:00:15;95590.88;;;23.22
42119;BMP280;27783;42.782;23.274;2022-10-19T12:05:42;95585.78;;;23.23
42119;BMP280;27783;42.782;23.274;2022-10-19T12:08:56;95584.56;;;23.61
42119;BMP280;27783;42.782;23.274;2022-10-19T12:14:31;95586.50;;;23.47
42119;BMP280;27783;42.782;23.274;2022-10-19T12:17:04;95588.00;;;23.62
42119;BMP280;27783;42.782;23.274;2022-10-19T12:19:45;95590.13;;;23.58
42119;BMP280;27783;42.782;23.274;2022-10-19T12:22:33;95584.25;;;23.45
42119;BMP280;27783;42.782;23.274;2022-10-19T12:25:02;95581.22;;;23.52
42119;BMP280;27783;42.782;23.274;2022-10-19T12:27:34;95578.78;;;23.91
42119;BMP280;27783;42.782;23.274;2022-10-19T12:30:13;95570.31;;;23.98
42119;BMP280;27783;42.782;23.274;2022-10-19T12:36:05;95562.66;;;23.68
42119;BMP280;27783;42.782;23.274;2022-10-19T12:38:46;95555.94;;;23.87
42119;BMP280;27783;42.782;23.274;2022-10-19T12:43:55;95557.66;;;23.47
42119;BMP280;27783;42.782;23.274;2022-10-19T12:46:34;95557.44;;;23.51
42119;BMP280;27783;42.782;23.274;2022-10-19T12:51:56;95551.78;;;23.49
42119;BMP280;27783;42.782;23.274;2022-10-19T12:54:24;95553.53;;;23.89
42119;BMP280;27783;42.782;23.274;2022-10-19T12:56:52;95553.56;;;22.92
42119;BMP280;27783;42.782;23.274;2022-10-19T12:59:34;95546.31;;;23.43
42119;BMP280;27783;42.782;23.274;2022-10-19T13:02:03;95546.53;;;23.17
42119;BMP280;27783;42.782;23.274;2022-10-19T13:04:31;95541.47;;;23.33
42119;BMP280;27783;42.782;23.274;2022-10-19T13:15:47;95537.22;;;23.04
42119;BMP280;27783;42.782;23.274;2022-10-19T13:17:53;95542.28;;;22.79
42119;BMP280;27783;42.782;23.274;2022-10-19T13:22:49;95539.25;;;23.09
42119;BMP280;27783;42.782;23.274;2022-10-19T13:27:47;95531.94;;;23.09
42119;BMP280;27783;42.782;23.274;2022-10-19T13:38:31;95539.25;;;23.09
42119;BMP280;27783;42.782;23.274;2022-10-19T13:41:01;95535.22;;;22.90
42119;BMP280;27783;42.782;23.274;2022-10-19T13:46:20;95535.91;;;22.77
42119;BMP280;27783;42.782;23.274;2022-10-19T14:08:05;95524.78;;;21.98
42119;BMP280;27783;42.782;23.274;2022-10-19T14:10:33;95529.03;;;21.72
42119;BMP280;27783;42.782;23.274;2022-10-19T14:13:01;95520.53;;;21.83
42119;BMP280;27783;42.782;23.274;2022-10-19T14:15:29;95523.50;;;21.85
42119;BMP280;27783;42.782;23.274;2022-10-19T14:17:55;95523.50;;;21.67
42119;BMP280;27783;42.782;23.274;2022-10-19T14:22:55;95524.09;;;21.71
42119;BMP280;27783;42.782;23.274;2022-10-19T14:25:27;95524.00;;;21.48
42119;BMP280;27783;42.782;23.274;2022-10-19T14:28:03;95530.44;;;21.24
42119;BMP280;27783;42.782;23.274;2022-10-19T14:30:31;95534.47;;;21.20
42119;BMP280;27783;42.782;23.274;2022-10-19T14:32:59;95535.19;;;21.20
42119;BMP280;27783;42.782;23.274;2022-10-19T14:35:39;95536.50;;;20.90
42119;BMP280;27783;42.782;23.274;2022-10-19T14:38:06;95535.69;;;20.46
42119;BMP280;27783;42.782;23.274;2022-10-19T14:40:41;95537.47;;;20.49
42119;BMP280;27783;42.782;23.274;2022-10-19T14:43:24;95542.81;;;20.31
42119;BMP280;27783;42.782;23.274;2022-10-19T14:46:13;95553.09;;;20.12
42119;BMP280;27783;42.782;23.274;2022-10-19T14:48:44;95539.97;;;20.05
42119;BMP280;27783;42.782;23.274;2022-10-19T14:53:55;95548.28;;;19.98
42119;BMP280;27783;42.782;23.274;2022-10-19T14:56:26;95544.25;;;19.64
42119;BMP280;27783;42.782;23.274;2022-10-19T14:58:56;95552.28;;;19.64
42119;BMP280;27783;42.782;23.274;2022-10-19T15:01:23;95550.03;;;19.63
42119;BMP280;27783;42.782;23.274;2022-10-19T15:03:51;95557.16;;;19.24
42119;BMP280;27783;42.782;23.274;2022-10-19T15:06:27;95561.75;;;19.23
42119;BMP280;27783;42.782;23.274;2022-10-19T15:08:59;95559.09;;;19.23
42119;BMP280;27783;42.782;23.274;2022-10-19T15:11:28;95563.59;;;18.93
42119;BMP280;27783;42.782;23.274;2022-10-19T15:14:15;95565.66;;;18.65
42119;BMP280;27783;42.782;23.274;2022-10-19T15:19:26;95569.53;;;18.52
42119;BMP280;27783;42.782;23.274;2022-10-19T15:24:34;95577.78;;;18.21
42119;BMP280;27783;42.782;23.274;2022-10-19T15:27:22;95581.53;;;17.99
42119;BMP280;27783;42.782;23.274;2022-10-19T15:35:39;95599.97;;;17.54
42119;BMP280;27783;42.782;23.274;2022-10-19T15:38:24;95600.88;;;17.35
42119;BMP280;27783;42.782;23.274;2022-10-19T15:41:00;95601.13;;;17.41
42119;BMP280;27783;42.782;23.274;2022-10-19T15:46:20;95614.13;;;16.96
42119;BMP280;27783;42.782;23.274;2022-10-19T15:48:48;95618.28;;;16.81
42119;BMP280;27783;42.782;23.274;2022-10-19T15:54:01;95625.38;;;16.72
42119;BMP280;27783;42.782;23.274;2022-10-19T15:56:31;95624.03;;;16.64
42119;BMP280;27783;42.782;23.274;2022-10-19T15:58:58;95616.38;;;16.51
42119;BMP280;27783;42.782;23.274;2022-10-19T16:01:25;95619.88;;;16.48
42119;BMP280;27783;42.782;23.274;2022-10-19T16:03:52;95630.53;;;16.32
42119;BMP280;27783;42.782;23.274;2022-10-19T16:06:19;95637.22;;;16.21
42119;BMP280;27783;42.782;23.274;2022-10-19T16:08:45;95634.53;;;16.05
42119;BMP280;27783;42.782;23.274;2022-10-19T16:11:13;95642.09;;;16.07
42119;BMP280;27783;42.782;23.274;2022-10-19T16:13:38;95646.34;;;16.04
42119;BMP280;27783;42.782;23.274;2022-10-19T16:16:06;95649.69;;;15.89
42119;BMP280;27783;42.782;23.274;2022-10-19T16:18:33;95652.06;;;15.84
42119;BMP280;27783;42.782;23.274;2022-10-19T16:20:58;95657.38;;;15.84
42119;BMP280;27783;42.782;23.274;2022-10-19T16:23:24;95653.59;;;15.66
42119;BMP280;27783;42.782;23.274;2022-10-19T16:25:50;95662.91;;;15.55
42119;BMP280;27783;42.782;23.274;2022-10-19T16:28:17;95664.63;;;15.46
42119;BMP280;27783;42.782;23.274;2022-10-19T16:30:43;95668.84;;;15.43